sensor_id;sensor_type;location;lat;lon;timestamp;pressure;altitude;pressure_sealevel;temperature;humidity
35676;BME280;21790;42.668;23.298;2023-08-06T00:00:07;93578.19;;;27.17;48.76
35676;BME280;21790;42.668;23.298;2023-08-06T00:02:33;93552.34;;;27.22;48.30
35676;BME280;21790;42.668;23.298;2023-08-06T00:04:59;93604.63;;;27.19;48.98
35676;BME280;21790;42.668;23.298;2023-08-06T00:07:24;93611.19;;;26.93;49.41
35676;BME280;21790;42.668;23.298;2023-08-06T00:09:50;93609.56;;;26.99;48.47
35676;BME280;21790;42.668;23.298;2023-08-06T00:12:16;93611.94;;;27.32;47.98
35676;BME280;21790;42.668;23.298;2023-08-06T00:14:41;93605.81;;;27.16;48.44
35676;BME280;21790;42.668;23.298;2023-08-06T00:17:07;93593.28;;;27.10;48.40
35676;BME280;21790;42.668;23.298;2023-08-06T00:19:33;93588.78;;;27.06;49.87
35676;BME280;21790;42.668;23.298;2023-08-06T00:21:59;93593.44;;;26.92;50.10
35676;BME280;21790;42.668;23.298;2023-08-06T00:24:24;93601.94;;;27.02;50.48
35676;BME280;21790;42.668;23.298;2023-08-06T00:26:50;93605.97;;;26.89;49.62
35676;BME280;21790;42.668;23.298;2023-08-06T00:29:15;93594.56;;;26.80;49.59
35676;BME280;21790;42.668;23.298;2023-08-06T00:31:41;93595.78;;;26.86;49.65
35676;BME280;21790;42.668;23.298;2023-08-06T00:34:06;93582.34;;;26.87;49.69
35676;BME280;21790;42.668;23.298;2023-08-06T00:36:32;93573.59;;;26.92;49.89
35676;BME280;21790;42.668;23.298;2023-08-06T00:38:58;93583.97;;;26.80;50.22
35676;BME280;21790;42.668;23.298;2023-08-06T00:41:23;93572.22;;;26.84;49.53
35676;BME280;21790;42.668;23.298;2023-08-06T00:43:49;93575.34;;;27.07;48.91
35676;BME280;21790;42.668;23.298;2023-08-06T00:46:15;93562.53;;;27.06;48.27
35676;BME280;21790;42.668;23.298;2023-08-06T00:48:41;93576.69;;;26.77;49.48
35676;BME280;21790;42.668;23.298;2023-08-06T00:51:09;93567.44;;;26.86;49.78
35676;BME280;21790;42.668;23.298;2023-08-06T00:53:36;93583.28;;;26.89;50.33
35676;BME280;21790;42.668;23.298;2023-08-06T00:56:03;93564.50;;;26.94;50.16
35676;BME280;21790;42.668;23.298;2023-08-06T00:58:28;93565.53;;;26.98;50.04
35676;BME280;21790;42.668;23.298;2023-08-06T01:00:54;93552.25;;;26.91;49.34
35676;BME280;21790;42.668;23.298;2023-08-06T01:03:20;93546.56;;;27.01;49.59
35676;BME280;21790;42.668;23.298;2023-08-06T01:05:46;93549.41;;;27.01;50.04
35676;BME280;21790;42.668;23.298;2023-08-06T01:08:41;93530.28;;;27.01;50.55
35676;BME280;21790;42.668;23.298;2023-08-06T01:16:39;93527.31;;;26.80;51.28
35676;BME280;21790;42.668;23.298;2023-08-06T01:19:05;93524.47;;;26.61;51.62
35676;BME280;21790;42.668;23.298;2023-08-06T01:21:30;93527.88;;;26.79;50.17
35676;BME280;21790;42.668;23.298;2023-08-06T01:23:56;93524.94;;;26.67;49.65
35676;BME280;21790;42.668;23.298;2023-08-06T01:26:38;93525.84;;;26.89;49.98
35676;BME280;21790;42.668;23.298;2023-08-06T01:29:16;93531.81;;;26.93;50.71
35676;BME280;21790;42.668;23.298;2023-08-06T01:31:48;93523.59;;;26.87;51.32
35676;BME280;21790;42.668;23.298;2023-08-06T01:34:24;93510.88;;;27.08;50.72
35676;BME280;21790;42.668;23.298;2023-08-06T01:36:50;93506.00;;;26.98;51.39
35676;BME280;21790;42.668;23.298;2023-08-06T01:39:16;93499.41;;;26.86;51.32
35676;BME280;21790;42.668;23.298;2023-08-06T01:41:42;93512.38;;;26.80;51.58
35676;BME280;21790;42.668;23.298;2023-08-06T01:44:07;93518.03;;;26.80;51.60
35676;BME280;21790;42.668;23.298;2023-08-06T01:46:33;93514.34;;;26.96;51.02
35676;BME280;21790;42.668;23.298;2023-08-06T01:48:58;93511.50;;;26.87;51.38
35676;BME280;21790;42.668;23.298;2023-08-06T01:51:25;93515.53;;;26.93;50.97
35676;BME280;21790;42.668;23.298;2023-08-06T01:53:52;93524.81;;;26.94;51.20
35676;BME280;21790;42.668;23.298;2023-08-06T01:56:19;93512.25;;;26.87;51.77
35676;BME280;21790;42.668;23.298;2023-08-06T01:58:45;93504.50;;;26.97;50.99
35676;BME280;21790;42.668;23.298;2023-08-06T02:01:12;93506.41;;;26.95;51.00
35676;BME280;21790;42.668;23.298;2023-08-06T02:03:37;93502.56;;;26.90;51.32
35676;BME280;21790;42.668;23.298;2023-08-06T02:06:04;93498.53;;;26.93;50.67
35676;BME280;21790;42.668;23.298;2023-08-06T02:08:30;93491.97;;;26.91;50.70
35676;BME280;21790;42.668;23.298;2023-08-06T02:10:55;93490.63;;;26.92;50.84
35676;BME280;21790;42.668;23.298;2023-08-06T02:13:21;93492.53;;;26.80;51.15
35676;BME280;21790;42.668;23.298;2023-08-06T02:15:46;93500.16;;;26.77;51.89
35676;BME280;21790;42.668;23.298;2023-08-06T02:18:15;93506.88;;;26.91;51.33
35676;BME280;21790;42.668;23.298;2023-08-06T02:20:41;93521.50;;;26.97;50.92
35676;BME280;21790;42.668;23.298;2023-08-06T02:23:08;93536.44;;;26.88;51.66
35676;BME280;21790;42.668;23.298;2023-08-06T02:25:34;93536.84;;;26.75;51.29
35676;BME280;21790;42.668;23.298;2023-08-06T02:27:59;93513.44;;;26.65;51.92
35676;BME280;21790;42.668;23.298;2023-08-06T02:30:25;93505.53;;;26.63;51.99
35676;BME280;21790;42.668;23.298;2023-08-06T02:32:51;93503.44;;;26.54;52.38
35676;BME280;21790;42.668;23.298;2023-08-06T02:35:16;93501.50;;;26.57;52.70
35676;BME280;21790;42.668;23.298;2023-08-06T02:37:42;93511.94;;;26.54;52.49
35676;BME280;21790;42.668;23.298;2023-08-06T02:40:08;93538.19;;;26.55;52.62
35676;BME280;21790;42.668;23.298;2023-08-06T02:42:33;93546.97;;;26.40;52.82
35676;BME280;21790;42.668;23.298;2023-08-06T02:44:59;93549.94;;;26.51;52.82
35676;BME280;21790;42.668;23.298;2023-08-06T02:47:24;93540.84;;;26.53;51.82
35676;BME280;21790;42.668;23.298;2023-08-06T02:49:50;93525.81;;;26.50;52.35
35676;BME280;21790;42.668;23.298;2023-08-06T02:52:16;93501.19;;;26.62;51.91
35676;BME280;21790;42.668;23.298;2023-08-06T02:54:42;93481.81;;;26.78;51.57
35676;BME280;21790;42.668;23.298;2023-08-06T02:57:08;93489.13;;;26.62;52.47
35676;BME280;21790;42.668;23.298;2023-08-06T02:59:33;93469.56;;;26.76;52.23
35676;BME280;21790;42.668;23.298;2023-08-06T03:01:59;93480.03;;;26.63;52.25
35676;BME280;21790;42.668;23.298;2023-08-06T03:04:24;93489.53;;;26.30;53.03
35676;BME280;21790;42.668;23.298;2023-08-06T03:06:50;93464.50;;;26.36;52.62
35676;BME280;21790;42.668;23.298;2023-08-06T03:09:16;93447.09;;;26.39;52.79
35676;BME280;21790;42.668;23.298;2023-08-06T03:11:42;93480.31;;;26.29;53.24
35676;BME280;21790;42.668;23.298;2023-08-06T03:14:08;93500.25;;;25.66;54.69
35676;BME280;21790;42.668;23.298;2023-08-06T03:16:33;93505.75;;;25.37;54.90
35676;BME280;21790;42.668;23.298;2023-08-06T03:18:59;93479.28;;;25.69;54.32
35676;BME280;21790;42.668;23.298;2023-08-06T03:21:25;93447.03;;;26.10;53.10
35676;BME280;21790;42.668;23.298;2023-08-06T03:23:50;93448.53;;;26.21;52.75
35676;BME280;21790;42.668;23.298;2023-08-06T03:26:16;93469.34;;;25.97;53.43
35676;BME280;21790;42.668;23.298;2023-08-06T03:28:42;93476.19;;;25.94;53.83
35676;BME280;21790;42.668;23.298;2023-08-06T03:31:07;93482.03;;;25.96;54.32
35676;BME280;21790;42.668;23.298;2023-08-06T03:33:33;93498.94;;;26.32;52.65
35676;BME280;21790;42.668;23.298;2023-08-06T03:35:59;93521.69;;;26.15;52.72
35676;BME280;21790;42.668;23.298;2023-08-06T03:38:24;93522.47;;;26.25;52.13
35676;BME280;21790;42.668;23.298;2023-08-06T03:40:50;93496.56;;;26.38;51.90
35676;BME280;21790;42.668;23.298;2023-08-06T03:43:16;93508.94;;;26.33;52.49
35676;BME280;21790;42.668;23.298;2023-08-06T03:45:42;93514.75;;;26.35;52.95
35676;BME280;21790;42.668;23.298;2023-08-06T03:48:08;93501.19;;;26.34;52.61
35676;BME280;21790;42.668;23.298;2023-08-06T03:50:34;93500.59;;;26.45;52.18
35676;BME280;21790;42.668;23.298;2023-08-06T03:53:00;93520.56;;;26.28;53.56
35676;BME280;21790;42.668;23.298;2023-08-06T03:55:25;93529.34;;;26.32;53.96
35676;BME280;21790;42.668;23.298;2023-08-06T03:57:51;93512.97;;;26.49;52.99
35676;BME280;21790;42.668;23.298;2023-08-06T04:00:17;93521.47;;;26.40;54.04
35676;BME280;21790;42.668;23.298;2023-08-06T04:02:42;93526.34;;;26.30;54.13
35676;BME280;21790;42.668;23.298;2023-08-06T04:05:08;93531.59;;;26.23;53.85
35676;BME280;21790;42.668;23.298;2023-08-06T04:07:34;93534.28;;;26.31;54.22
35676;BME280;21790;42.668;23.298;2023-08-06T04:10:02;93542.25;;;26.15;53.89
35676;BME280;21790;42.668;23.298;2023-08-06T04:12:29;93538.88;;;26.27;52.91
35676;BME280;21790;42.668;23.298;2023-08-06T04:14:55;93539.34;;;26.33;53.39
35676;BME280;21790;42.668;23.298;2023-08-06T04:17:21;93535.94;;;26.34;54.39
35676;BME280;21790;42.668;23.298;2023-08-06T04:19:50;93544.25;;;26.32;54.29
35676;BME280;21790;42.668;23.298;2023-08-06T04:22:16;93541.44;;;26.42;54.16
35676;BME280;21790;42.668;23.298;2023-08-06T04:24:42;93535.50;;;26.57;53.58
35676;BME280;21790;42.668;23.298;2023-08-06T04:27:09;93535.66;;;26.59;53.92
35676;BME280;21790;42.668;23.298;2023-08-06T04:29:35;93527.00;;;26.47;54.42
35676;BME280;21790;42.668;23.298;2023-08-06T04:32:01;93522.06;;;26.57;53.86
35676;BME280;21790;42.668;23.298;2023-08-06T04:34:26;93518.34;;;26.74;52.88
35676;BME280;21790;42.668;23.298;2023-08-06T04:36:52;93517.00;;;26.65;51.64
35676;BME280;21790;42.668;23.298;2023-08-06T04:39:17;93510.75;;;26.67;51.83
35676;BME280;21790;42.668;23.298;2023-08-06T04:41:43;93497.94;;;26.66;53.23
35676;BME280;21790;42.668;23.298;2023-08-06T04:44:08;93490.16;;;26.76;52.75
35676;BME280;21790;42.668;23.298;2023-08-06T04:46:34;93481.19;;;26.80;52.70
35676;BME280;21790;42.668;23.298;2023-08-06T04:48:59;93471.78;;;27.06;52.31
35676;BME280;21790;42.668;23.298;2023-08-06T04:51:25;93465.69;;;27.00;52.91
35676;BME280;21790;42.668;23.298;2023-08-06T04:53:50;93459.44;;;26.82;53.42
35676;BME280;21790;42.668;23.298;2023-08-06T04:56:16;93453.47;;;26.97;53.04
35676;BME280;21790;42.668;23.298;2023-08-06T04:58:41;93438.66;;;27.09;52.55
35676;BME280;21790;42.668;23.298;2023-08-06T05:01:07;93445.78;;;27.19;52.60
35676;BME280;21790;42.668;23.298;2023-08-06T05:03:33;93445.69;;;27.08;52.63
35676;BME280;21790;42.668;23.298;2023-08-06T05:05:58;93449.97;;;27.18;52.25
35676;BME280;21790;42.668;23.298;2023-08-06T05:08:24;93444.56;;;27.32;51.97
35676;BME280;21790;42.668;23.298;2023-08-06T05:10:49;93447.28;;;27.61;51.68
35676;BME280;21790;42.668;23.298;2023-08-06T05:13:15;93450.38;;;27.74;51.81
35676;BME280;21790;42.668;23.298;2023-08-06T05:15:41;93458.75;;;28.03;50.67
35676;BME280;21790;42.668;23.298;2023-08-06T05:18:08;93460.47;;;28.18;50.60
35676;BME280;21790;42.668;23.298;2023-08-06T05:20:41;93459.72;;;28.39;50.24
35676;BME280;21790;42.668;23.298;2023-08-06T05:23:07;93460.53;;;28.51;49.87
35676;BME280;21790;42.668;23.298;2023-08-06T05:25:37;93452.41;;;28.57;49.79
35676;BME280;21790;42.668;23.298;2023-08-06T05:28:03;93453.50;;;28.73;49.39
35676;BME280;21790;42.668;23.298;2023-08-06T05:30:30;93456.09;;;28.81;49.26
35676;BME280;21790;42.668;23.298;2023-08-06T05:32:56;93453.13;;;28.79;48.94
35676;BME280;21790;42.668;23.298;2023-08-06T05:35:22;93451.72;;;28.68;49.25
35676;BME280;21790;42.668;23.298;2023-08-06T05:37:48;93452.25;;;28.55;49.76
35676;BME280;21790;42.668;23.298;2023-08-06T05:40:14;93442.44;;;28.67;49.78
35676;BME280;21790;42.668;23.298;2023-08-06T05:42:40;93453.13;;;28.79;49.08
35676;BME280;21790;42.668;23.298;2023-08-06T05:45:06;93440.53;;;28.82;49.25
35676;BME280;21790;42.668;23.298;2023-08-06T05:47:32;93448.66;;;28.76;49.77
35676;BME280;21790;42.668;23.298;2023-08-06T05:49:58;93445.66;;;28.95;49.25
35676;BME280;21790;42.668;23.298;2023-08-06T05:52:23;93458.88;;;28.90;49.42
35676;BME280;21790;42.668;23.298;2023-08-06T05:54:49;93462.97;;;28.99;49.31
35676;BME280;21790;42.668;23.298;2023-08-06T05:57:15;93469.94;;;29.19;49.08
35676;BME280;21790;42.668;23.298;2023-08-06T05:59:41;93469.19;;;29.40;48.39
35676;BME280;21790;42.668;23.298;2023-08-06T06:02:06;93471.91;;;29.61;47.75
35676;BME280;21790;42.668;23.298;2023-08-06T06:04:32;93475.63;;;29.75;47.15
35676;BME280;21790;42.668;23.298;2023-08-06T06:06:58;93475.00;;;29.65;46.43
35676;BME280;21790;42.668;23.298;2023-08-06T06:09:23;93479.38;;;29.78;46.03
35676;BME280;21790;42.668;23.298;2023-08-06T06:11:49;93483.09;;;29.92;45.97
35676;BME280;21790;42.668;23.298;2023-08-06T06:14:16;93483.34;;;29.96;45.49
35676;BME280;21790;42.668;23.298;2023-08-06T06:16:42;93487.44;;;29.93;44.94
35676;BME280;21790;42.668;23.298;2023-08-06T06:19:08;93493.13;;;29.93;44.75
35676;BME280;21790;42.668;23.298;2023-08-06T06:21:34;93491.63;;;30.15;44.59
35676;BME280;21790;42.668;23.298;2023-08-06T06:24:00;93504.25;;;30.12;44.40
35676;BME280;21790;42.668;23.298;2023-08-06T06:26:25;93502.28;;;30.03;44.33
35676;BME280;21790;42.668;23.298;2023-08-06T06:28:51;93513.81;;;30.05;44.06
35676;BME280;21790;42.668;23.298;2023-08-06T06:31:17;93514.81;;;29.98;44.26
35676;BME280;21790;42.668;23.298;2023-08-06T06:33:42;93517.00;;;29.88;44.03
35676;BME280;21790;42.668;23.298;2023-08-06T06:36:08;93518.59;;;29.79;43.97
35676;BME280;21790;42.668;23.298;2023-08-06T06:38:35;93530.22;;;29.72;44.22
35676;BME280;21790;42.668;23.298;2023-08-06T06:41:00;93541.50;;;29.70;43.78
35676;BME280;21790;42.668;23.298;2023-08-06T06:43:27;93543.78;;;29.38;44.09
35676;BME280;21790;42.668;23.298;2023-08-06T06:45:56;93544.38;;;29.37;44.58
35676;BME280;21790;42.668;23.298;2023-08-06T06:48:26;93545.63;;;29.34;44.70
35676;BME280;21790;42.668;23.298;2023-08-06T06:50:52;93553.19;;;29.20;45.21
35676;BME280;21790;42.668;23.298;2023-08-06T06:53:18;93555.13;;;29.05;45.17
35676;BME280;21790;42.668;23.298;2023-08-06T06:55:44;93566.38;;;29.03;45.69
35676;BME280;21790;42.668;23.298;2023-08-06T06:58:09;93561.66;;;29.29;45.42
35676;BME280;21790;42.668;23.298;2023-08-06T07:00:38;93558.44;;;29.56;44.88
35676;BME280;21790;42.668;23.298;2023-08-06T07:03:04;93570.97;;;29.86;43.91
35676;BME280;21790;42.668;23.298;2023-08-06T07:05:30;93568.66;;;30.17;43.47
35676;BME280;21790;42.668;23.298;2023-08-06T07:07:56;93565.22;;;30.30;42.86
35676;BME280;21790;42.668;23.298;2023-08-06T07:10:21;93575.00;;;30.51;41.92
35676;BME280;21790;42.668;23.298;2023-08-06T07:12:47;93572.28;;;30.53;42.41
35676;BME280;21790;42.668;23.298;2023-08-06T07:15:12;93584.81;;;30.71;41.66
35676;BME280;21790;42.668;23.298;2023-08-06T07:17:38;93576.25;;;30.71;41.57
35676;BME280;21790;42.668;23.298;2023-08-06T07:20:06;93585.25;;;30.91;39.93
35676;BME280;21790;42.668;23.298;2023-08-06T07:22:32;93574.19;;;31.08;39.35
35676;BME280;21790;42.668;23.298;2023-08-06T07:24:58;93572.91;;;31.23;39.48
35676;BME280;21790;42.668;23.298;2023-08-06T07:27:25;93577.81;;;31.34;39.11
35676;BME280;21790;42.668;23.298;2023-08-06T07:29:50;93581.13;;;31.42;38.81
35676;BME280;21790;42.668;23.298;2023-08-06T07:32:16;93582.97;;;31.49;38.04
35676;BME280;21790;42.668;23.298;2023-08-06T07:34:42;93583.28;;;31.67;37.87
35676;BME280;21790;42.668;23.298;2023-08-06T07:37:07;93572.25;;;31.62;38.05
35676;BME280;21790;42.668;23.298;2023-08-06T07:39:32;93578.50;;;31.58;37.73
35676;BME280;21790;42.668;23.298;2023-08-06T07:41:58;93573.19;;;31.41;37.40
35676;BME280;21790;42.668;23.298;2023-08-06T07:44:24;93571.03;;;31.53;37.99
35676;BME280;21790;42.668;23.298;2023-08-06T07:46:50;93576.75;;;31.53;37.05
35676;BME280;21790;42.668;23.298;2023-08-06T07:49:15;93565.41;;;31.67;37.53
35676;BME280;21790;42.668;23.298;2023-08-06T07:51:41;93569.28;;;31.60;37.32
35676;BME280;21790;42.668;23.298;2023-08-06T07:54:07;93565.09;;;31.49;37.09
35676;BME280;21790;42.668;23.298;2023-08-06T07:56:32;93567.28;;;31.62;37.23
35676;BME280;21790;42.668;23.298;2023-08-06T07:58:58;93572.41;;;31.52;37.54
35676;BME280;21790;42.668;23.298;2023-08-06T08:01:24;93568.38;;;31.32;36.24
35676;BME280;21790;42.668;23.298;2023-08-06T08:03:49;93565.59;;;31.20;36.68
35676;BME280;21790;42.668;23.298;2023-08-06T08:06:15;93565.72;;;31.47;37.44
35676;BME280;21790;42.668;23.298;2023-08-06T08:08:40;93563.72;;;31.75;37.28
35676;BME280;21790;42.668;23.298;2023-08-06T08:11:06;93566.25;;;31.69;37.28
35676;BME280;21790;42.668;23.298;2023-08-06T08:13:33;93567.16;;;31.85;36.35
35676;BME280;21790;42.668;23.298;2023-08-06T08:16:01;93572.06;;;31.96;35.93
35676;BME280;21790;42.668;23.298;2023-08-06T08:18:27;93564.31;;;31.85;36.15
35676;BME280;21790;42.668;23.298;2023-08-06T08:20:53;93570.38;;;31.54;35.64
35676;BME280;21790;42.668;23.298;2023-08-06T08:23:19;93566.91;;;31.56;36.26
35676;BME280;21790;42.668;23.298;2023-08-06T08:25:44;93571.56;;;31.12;36.63
35676;BME280;21790;42.668;23.298;2023-08-06T08:28:10;93569.69;;;31.17;35.59
35676;BME280;21790;42.668;23.298;2023-08-06T08:30:36;93568.38;;;31.32;35.78
35676;BME280;21790;42.668;23.298;2023-08-06T08:33:01;93564.69;;;31.54;36.51
35676;BME280;21790;42.668;23.298;2023-08-06T08:35:27;93563.22;;;31.79;35.56
35676;BME280;21790;42.668;23.298;2023-08-06T08:37:52;93552.41;;;31.77;35.16
35676;BME280;21790;42.668;23.298;2023-08-06T08:40:18;93558.47;;;31.83;35.09
35676;BME280;21790;42.668;23.298;2023-08-06T08:42:44;93556.63;;;32.02;35.47
35676;BME280;21790;42.668;23.298;2023-08-06T08:45:12;93553.91;;;32.17;36.43
35676;BME280;21790;42.668;23.298;2023-08-06T08:47:41;93564.03;;;32.07;35.66
35676;BME280;21790;42.668;23.298;2023-08-06T08:50:11;93556.53;;;31.74;36.41
35676;BME280;21790;42.668;23.298;2023-08-06T08:52:39;93554.13;;;31.82;36.20
35676;BME280;21790;42.668;23.298;2023-08-06T08:55:07;93544.63;;;31.91;36.17
35676;BME280;21790;42.668;23.298;2023-08-06T08:57:32;93543.78;;;32.03;35.57
35676;BME280;21790;42.668;23.298;2023-08-06T08:59:58;93550.56;;;31.95;35.06
35676;BME280;21790;42.668;23.298;2023-08-06T09:02:25;93549.63;;;31.66;36.51
35676;BME280;21790;42.668;23.298;2023-08-06T09:04:53;93550.16;;;31.62;35.77
35676;BME280;21790;42.668;23.298;2023-08-06T09:07:22;93541.66;;;31.39;35.98
35676;BME280;21790;42.668;23.298;2023-08-06T09:09:49;93547.03;;;31.33;35.78
35676;BME280;21790;42.668;23.298;2023-08-06T09:12:16;93547.16;;;31.60;36.16
35676;BME280;21790;42.668;23.298;2023-08-06T09:14:42;93540.69;;;31.85;36.02
35676;BME280;21790;42.668;23.298;2023-08-06T09:17:08;93532.94;;;32.13;35.96
35676;BME280;21790;42.668;23.298;2023-08-06T09:19:36;93523.06;;;32.02;36.60
35676;BME280;21790;42.668;23.298;2023-08-06T09:22:01;93528.69;;;32.14;35.86
35676;BME280;21790;42.668;23.298;2023-08-06T09:24:27;93521.53;;;32.13;35.37
35676;BME280;21790;42.668;23.298;2023-08-06T09:26:53;93525.16;;;31.88;33.58
35676;BME280;21790;42.668;23.298;2023-08-06T09:29:19;93523.06;;;32.02;34.73
35676;BME280;21790;42.668;23.298;2023-08-06T09:31:51;93518.94;;;32.05;34.72
35676;BME280;21790;42.668;23.298;2023-08-06T09:34:18;93517.50;;;32.18;33.83
35676;BME280;21790;42.668;23.298;2023-08-06T09:36:54;93513.38;;;32.48;33.54
35676;BME280;21790;42.668;23.298;2023-08-06T09:39:27;93512.00;;;32.49;32.95
35676;BME280;21790;42.668;23.298;2023-08-06T09:41:58;93507.53;;;32.60;32.43
35676;BME280;21790;42.668;23.298;2023-08-06T09:44:25;93507.63;;;32.48;32.66
35676;BME280;21790;42.668;23.298;2023-08-06T09:46:59;93506.47;;;32.53;32.43
35676;BME280;21790;42.668;23.298;2023-08-06T09:49:27;93515.25;;;32.57;32.62
35676;BME280;21790;42.668;23.298;2023-08-06T09:51:54;93515.47;;;32.61;33.09
35676;BME280;21790;42.668;23.298;2023-08-06T09:54:23;93515.47;;;32.48;32.98
35676;BME280;21790;42.668;23.298;2023-08-06T09:56:49;93521.31;;;32.36;33.73
35676;BME280;21790;42.668;23.298;2023-08-06T09:59:16;93512.69;;;32.09;33.89
35676;BME280;21790;42.668;23.298;2023-08-06T10:01:43;93507.81;;;32.11;33.76
35676;BME280;21790;42.668;23.298;2023-08-06T10:04:09;93518.28;;;31.93;34.19
35676;BME280;21790;42.668;23.298;2023-08-06T10:06:37;93522.81;;;31.98;33.68
35676;BME280;21790;42.668;23.298;2023-08-06T10:09:06;93534.91;;;31.96;33.70
35676;BME280;21790;42.668;23.298;2023-08-06T10:11:33;93529.06;;;31.94;33.55
35676;BME280;21790;42.668;23.298;2023-08-06T10:14:16;93536.75;;;31.78;34.07
35676;BME280;21790;42.668;23.298;2023-08-06T10:16:46;93535.81;;;31.87;33.53
35676;BME280;21790;42.668;23.298;2023-08-06T10:19:15;93532.06;;;31.96;33.23
35676;BME280;21790;42.668;23.298;2023-08-06T10:21:45;93528.63;;;31.86;33.19
35676;BME280;21790;42.668;23.298;2023-08-06T10:24:28;93524.53;;;31.89;33.15
35676;BME280;21790;42.668;23.298;2023-08-06T10:27:10;93519.69;;;31.67;33.69
35676;BME280;21790;42.668;23.298;2023-08-06T10:29:39;93521.53;;;31.74;33.17
35676;BME280;21790;42.668;23.298;2023-08-06T10:32:05;93534.94;;;31.71;33.02
35676;BME280;21790;42.668;23.298;2023-08-06T10:37:23;93535.63;;;31.83;32.72
35676;BME280;21790;42.668;23.298;2023-08-06T10:39:52;93538.50;;;31.58;33.52
35676;BME280;21790;42.668;23.298;2023-08-06T10:42:28;93548.47;;;31.45;33.91
35676;BME280;21790;42.668;23.298;2023-08-06T10:45:17;93553.56;;;31.47;34.33
35676;BME280;21790;42.668;23.298;2023-08-06T10:47:43;93552.97;;;31.37;34.39
35676;BME280;21790;42.668;23.298;2023-08-06T10:50:14;93556.91;;;31.43;34.75
35676;BME280;21790;42.668;23.298;2023-08-06T10:52:43;93560.41;;;31.42;34.57
35676;BME280;21790;42.668;23.298;2023-08-06T10:55:09;93559.72;;;31.30;35.24
35676;BME280;21790;42.668;23.298;2023-08-06T10:57:35;93559.50;;;31.26;35.22
35676;BME280;21790;42.668;23.298;2023-08-06T11:00:06;93573.59;;;31.35;35.27
35676;BME280;21790;42.668;23.298;2023-08-06T11:02:34;93567.16;;;31.35;35.71
35676;BME280;21790;42.668;23.298;2023-08-06T11:05:10;93570.34;;;31.41;35.14
35676;BME280;21790;42.668;23.298;2023-08-06T11:07:36;93570.53;;;31.31;35.54
35676;BME280;21790;42.668;23.298;2023-08-06T11:10:10;93575.00;;;31.48;35.61
35676;BME280;21790;42.668;23.298;2023-08-06T11:12:37;93573.13;;;31.27;35.65
35676;BME280;21790;42.668;23.298;2023-08-06T11:15:03;93565.47;;;31.18;35.57
35676;BME280;21790;42.668;23.298;2023-08-06T11:17:33;93588.81;;;31.14;35.65
35676;BME280;21790;42.668;23.298;2023-08-06T11:20:03;93598.50;;;31.09;36.51
35676;BME280;21790;42.668;23.298;2023-08-06T11:22:29;93608.69;;;30.89;37.32
35676;BME280;21790;42.668;23.298;2023-08-06T11:24:55;93617.03;;;30.73;40.19
35676;BME280;21790;42.668;23.298;2023-08-06T11:27:22;93611.59;;;30.54;40.83
35676;BME280;21790;42.668;23.298;2023-08-06T11:29:47;93596.81;;;30.34;42.15
35676;BME280;21790;42.668;23.298;2023-08-06T11:32:13;93606.22;;;30.14;42.11
35676;BME280;21790;42.668;23.298;2023-08-06T11:34:39;93600.19;;;29.75;44.54
35676;BME280;21790;42.668;23.298;2023-08-06T11:37:06;93597.84;;;29.38;45.45
35676;BME280;21790;42.668;23.298;2023-08-06T11:39:36;93598.44;;;29.37;45.25
35676;BME280;21790;42.668;23.298;2023-08-06T11:42:08;93599.00;;;29.45;45.74
35676;BME280;21790;42.668;23.298;2023-08-06T11:44:36;93586.16;;;29.56;46.23
35676;BME280;21790;42.668;23.298;2023-08-06T11:47:04;93583.69;;;29.62;46.54
35676;BME280;21790;42.668;23.298;2023-08-06T11:52:20;93575.75;;;30.05;45.15
35676;BME280;21790;42.668;23.298;2023-08-06T11:54:47;93572.53;;;30.22;43.80
35676;BME280;21790;42.668;23.298;2023-08-06T11:57:13;93572.78;;;30.38;44.42
35676;BME280;21790;42.668;23.298;2023-08-06T11:59:41;93568.69;;;30.64;43.31
35676;BME280;21790;42.668;23.298;2023-08-06T12:02:09;93572.66;;;30.70;42.82
35676;BME280;21790;42.668;23.298;2023-08-06T12:05:01;93564.50;;;31.02;43.18
35676;BME280;21790;42.668;23.298;2023-08-06T12:07:32;93562.97;;;31.24;43.03
35676;BME280;21790;42.668;23.298;2023-08-06T12:09:58;93572.63;;;31.31;41.78
35676;BME280;21790;42.668;23.298;2023-08-06T12:12:24;93570.22;;;31.39;42.16
35676;BME280;21790;42.668;23.298;2023-08-06T12:14:50;93558.34;;;31.31;43.00
35676;BME280;21790;42.668;23.298;2023-08-06T12:17:16;93562.66;;;31.32;42.66
35676;BME280;21790;42.668;23.298;2023-08-06T12:19:41;93547.72;;;31.20;42.22
35676;BME280;21790;42.668;23.298;2023-08-06T12:22:07;93548.91;;;31.03;41.12
35676;BME280;21790;42.668;23.298;2023-08-06T12:24:32;93543.69;;;30.88;40.63
35676;BME280;21790;42.668;23.298;2023-08-06T12:26:58;93557.50;;;30.80;40.67
35676;BME280;21790;42.668;23.298;2023-08-06T12:29:25;93565.28;;;30.91;40.02
35676;BME280;21790;42.668;23.298;2023-08-06T12:31:51;93559.84;;;30.83;39.53
35676;BME280;21790;42.668;23.298;2023-08-06T12:34:16;93559.34;;;30.87;39.30
35676;BME280;21790;42.668;23.298;2023-08-06T12:36:42;93555.63;;;30.84;39.43
35676;BME280;21790;42.668;23.298;2023-08-06T12:39:08;93570.53;;;30.71;40.39
35676;BME280;21790;42.668;23.298;2023-08-06T12:41:33;93560.97;;;30.66;40.01
35676;BME280;21790;42.668;23.298;2023-08-06T12:43:59;93561.38;;;30.61;39.23
35676;BME280;21790;42.668;23.298;2023-08-06T12:46:25;93549.63;;;30.55;38.13
35676;BME280;21790;42.668;23.298;2023-08-06T12:48:51;93551.47;;;30.50;40.48
35676;BME280;21790;42.668;23.298;2023-08-06T12:51:16;93549.50;;;30.53;39.60
35676;BME280;21790;42.668;23.298;2023-08-06T12:53:42;93544.75;;;30.57;40.59
35676;BME280;21790;42.668;23.298;2023-08-06T12:56:07;93546.50;;;30.62;40.28
35676;BME280;21790;42.668;23.298;2023-08-06T12:58:33;93549.09;;;30.70;40.29